createdAt,value
2022-11-27T00:00:10.410Z,9.06
2022-11-27T00:02:40.686Z,8.28
2022-11-27T00:05:08.299Z,9.11
2022-11-27T00:07:39.567Z,8.69
2022-11-27T00:10:07.063Z,8.64
2022-11-27T00:12:34.223Z,8.77
2022-11-27T00:15:05.573Z,8.92
2022-11-27T00:17:33.077Z,8.26
2022-11-27T00:20:02.454Z,8.84
2022-11-27T00:22:29.534Z,8.64
2022-11-27T00:25:05.657Z,8.72
2022-11-27T00:27:32.704Z,8.51
2022-11-27T00:30:06.227Z,8.69
2022-11-27T00:32:35.219Z,8.59
2022-11-27T00:35:02.102Z,8.70
2022-11-27T00:37:32.372Z,7.97
2022-11-27T00:40:00.031Z,8.57
2022-11-27T00:42:26.777Z,8.49
2022-11-27T00:44:55.532Z,8.58
2022-11-27T00:47:23.049Z,8.66
2022-11-27T00:49:50.286Z,8.65
2022-11-27T00:52:17.047Z,8.59
2022-11-27T00:54:45.891Z,8.35
2022-11-27T00:57:23.231Z,8.38
2022-11-27T00:59:52.930Z,8.38
2022-11-27T01:02:20.610Z,8.72
2022-11-27T01:04:50.573Z,8.38
2022-11-27T01:07:17.430Z,8.61
2022-11-27T01:09:45.383Z,8.67
2022-11-27T01:12:18.002Z,8.73
2022-11-27T01:14:44.782Z,8.66
2022-11-27T01:17:11.421Z,8.68
2022-11-27T01:19:39.953Z,8.63
2022-11-27T01:22:06.788Z,8.74
2022-11-27T01:24:33.524Z,8.61
2022-11-27T01:27:02.381Z,8.21
2022-11-27T01:29:36.143Z,8.73
2022-11-27T01:32:02.729Z,8.85
2022-11-27T01:34:34.527Z,8.92
2022-11-27T01:37:05.786Z,8.70
2022-11-27T01:39:38.415Z,8.93
2022-11-27T01:42:05.212Z,8.84
2022-11-27T01:44:48.187Z,8.86
2022-11-27T01:47:22.194Z,8.70
2022-11-27T01:50:06.131Z,8.78
2022-11-27T01:52:41.784Z,8.60
2022-11-27T01:55:19.020Z,8.75
2022-11-27T01:57:53.955Z,8.40
2022-11-27T02:00:25.954Z,8.65
2022-11-27T02:02:53.569Z,8.46
2022-11-27T02:05:25.499Z,8.42
2022-11-27T02:07:58.319Z,8.66
2022-11-27T02:10:53.794Z,8.61
2022-11-27T02:13:35.032Z,8.61
2022-11-27T02:16:26.344Z,8.66
2022-11-27T02:19:06.389Z,8.58
2022-11-27T02:21:58.705Z,8.45
2022-11-27T02:24:33.759Z,8.45
2022-11-27T02:27:38.211Z,8.21
2022-11-27T02:30:10.199Z,8.42
2022-11-27T02:32:50.376Z,8.23
2022-11-27T02:35:37.995Z,8.41
2022-11-27T02:38:21.114Z,8.39
2022-11-27T02:41:09.842Z,8.42
2022-11-27T02:43:41.192Z,8.14
2022-11-27T02:46:10.759Z,7.89
2022-11-27T02:48:55.715Z,8.33
2022-11-27T02:51:38.210Z,8.42
2022-11-27T02:54:24.398Z,8.43
2022-11-27T02:56:57.146Z,7.79
2022-11-27T02:59:27.010Z,8.38
2022-11-27T03:02:05.121Z,8.38
2022-11-27T03:04:42.635Z,8.37
2022-11-27T03:07:17.110Z,7.99
2022-11-27T03:09:54.967Z,7.30
2022-11-27T03:12:22.799Z,8.12
2022-11-27T03:14:52.182Z,8.24
2022-11-27T03:17:46.889Z,8.27
2022-11-27T03:20:21.154Z,8.27
2022-11-27T03:22:47.978Z,8.24
2022-11-27T03:25:20.617Z,8.24
2022-11-27T03:28:01.058Z,7.90
2022-11-27T03:30:28.093Z,8.07
2022-11-27T03:33:05.276Z,8.11
2022-11-27T03:35:35.082Z,7.80
2022-11-27T03:38:07.597Z,7.96
2022-11-27T03:41:08.474Z,7.85
2022-11-27T03:43:47.086Z,7.91
2022-11-27T03:46:31.664Z,7.98
2022-11-27T03:49:29.740Z,7.97
2022-11-27T03:52:33.024Z,7.89
2022-11-27T03:55:24.942Z,7.90
2022-11-27T03:58:09.735Z,7.51
2022-11-27T04:00:45.769Z,7.85
2022-11-27T04:03:14.206Z,7.52
2022-11-27T04:05:47.074Z,7.86
2022-11-27T04:08:17.077Z,7.89
2022-11-27T04:10:43.893Z,7.91
2022-11-27T04:13:16.240Z,7.52
2022-11-27T04:15:51.967Z,7.73
2022-11-27T04:18:22.124Z,7.99
2022-11-27T04:20:54.537Z,7.76
2022-11-27T04:23:21.290Z,7.80
2022-11-27T04:25:49.145Z,7.79
2022-11-27T04:28:30.912Z,7.89
2022-11-27T04:30:59.950Z,8.04
2022-11-27T04:33:27.573Z,8.03
2022-11-27T04:36:01.439Z,7.23
2022-11-27T04:38:32.664Z,7.93
2022-11-27T04:41:01.558Z,7.84
2022-11-27T04:43:29.521Z,7.65
2022-11-27T04:46:03.899Z,7.57
2022-11-27T04:48:33.614Z,7.61
2022-11-27T04:51:09.676Z,7.56
2022-11-27T04:53:36.592Z,7.66
2022-11-27T04:56:06.271Z,7.59
2022-11-27T04:58:43.781Z,7.59
2022-11-27T05:01:17.113Z,7.51
2022-11-27T05:03:43.809Z,7.26
2022-11-27T05:06:20.767Z,7.66
2022-11-27T05:08:47.474Z,7.70
2022-11-27T05:11:22.513Z,7.02
2022-11-27T05:14:14.816Z,7.68
2022-11-27T05:16:54.162Z,7.30
2022-11-27T05:19:25.758Z,7.76
2022-11-27T05:21:56.862Z,7.71
2022-11-27T05:24:33.620Z,7.60
2022-11-27T05:27:00.453Z,6.19
2022-11-27T05:29:27.561Z,7.68
2022-11-27T05:31:57.532Z,7.34
2022-11-27T05:34:28.975Z,7.52
2022-11-27T05:36:55.662Z,7.32
2022-11-27T05:39:29.069Z,7.37
2022-11-27T05:41:55.730Z,7.47
2022-11-27T05:44:27.267Z,7.22
2022-11-27T05:46:54.034Z,7.09
2022-11-27T05:49:22.944Z,7.25
2022-11-27T05:51:56.134Z,7.08
2022-11-27T05:54:22.931Z,7.32
2022-11-27T05:57:00.073Z,6.88
2022-11-27T05:59:40.119Z,7.26
2022-11-27T06:02:18.090Z,7.23
2022-11-27T06:04:48.786Z,7.15
2022-11-27T06:07:15.641Z,7.19
2022-11-27T06:09:46.603Z,7.30
2022-11-27T06:12:25.525Z,6.94
2022-11-27T06:14:56.359Z,7.08
2022-11-27T06:17:28.364Z,7.12
2022-11-27T06:19:55.099Z,7.18
2022-11-27T06:22:24.834Z,6.35
2022-11-27T06:25:01.671Z,6.91
2022-11-27T06:27:33.862Z,7.15
2022-11-27T06:30:00.460Z,7.21
2022-11-27T06:32:27.181Z,6.72
2022-11-27T06:34:56.675Z,7.01
2022-11-27T06:37:24.653Z,7.09
2022-11-27T06:39:52.587Z,7.06
2022-11-27T06:42:19.569Z,7.18
2022-11-27T06:44:47.651Z,7.11
2022-11-27T06:47:17.402Z,6.79
2022-11-27T06:49:46.349Z,7.32
2022-11-27T06:52:13.037Z,7.18
2022-11-27T06:54:40.130Z,6.94
2022-11-27T06:57:07.106Z,7.01
2022-11-27T06:59:34.663Z,7.35
2022-11-27T07:02:01.474Z,7.16
2022-11-27T07:04:28.218Z,7.07
2022-11-27T07:06:55.419Z,7.31
2022-11-27T07:09:22.123Z,7.12
2022-11-27T07:11:55.240Z,7.31
2022-11-27T07:14:22.148Z,7.20
2022-11-27T07:16:49.121Z,7.37
2022-11-27T07:19:18.536Z,7.40
2022-11-27T07:21:45.218Z,7.32
2022-11-27T07:24:11.973Z,7.36
2022-11-27T07:26:39.151Z,7.52
2022-11-27T07:29:05.871Z,7.44
2022-11-27T07:31:33.643Z,7.52
2022-11-27T07:34:00.344Z,7.40
2022-11-27T07:36:29.740Z,6.95
2022-11-27T07:38:59.778Z,7.24
2022-11-27T07:41:32.273Z,7.33
2022-11-27T07:44:00.727Z,7.52
2022-11-27T07:46:30.793Z,7.35
2022-11-27T07:48:58.568Z,7.45
2022-11-27T07:51:25.332Z,7.55
2022-11-27T07:53:54.542Z,7.72
2022-11-27T07:56:23.907Z,7.64
2022-11-27T07:58:51.396Z,7.68
2022-11-27T08:01:19.704Z,7.77
2022-11-27T08:03:47.026Z,7.81
2022-11-27T08:06:26.157Z,7.80
2022-11-27T08:08:55.981Z,7.76
2022-11-27T08:11:30.312Z,7.84
2022-11-27T08:14:03.495Z,7.68
2022-11-27T08:16:32.376Z,8.12
2022-11-27T08:18:59.402Z,7.65
2022-11-27T08:21:27.651Z,8.05
2022-11-27T08:24:00.746Z,7.97
2022-11-27T08:26:28.320Z,8.06
2022-11-27T08:28:56.357Z,8.15
2022-11-27T08:31:23.904Z,8.22
2022-11-27T08:33:50.732Z,8.00
2022-11-27T08:36:18.316Z,8.22
2022-11-27T08:38:47.439Z,8.23
2022-11-27T08:41:15.570Z,8.26
2022-11-27T08:43:42.394Z,8.31
2022-11-27T08:46:11.922Z,6.93
2022-11-27T08:48:39.002Z,8.36
2022-11-27T08:51:12.122Z,8.10
2022-11-27T08:53:40.399Z,8.37
2022-11-27T08:56:10.060Z,7.82
2022-11-27T08:58:41.132Z,8.16
2022-11-27T09:01:22.961Z,8.40
2022-11-27T09:03:50.469Z,8.53
2022-11-27T09:06:21.479Z,8.70
2022-11-27T09:09:09.965Z,8.52
2022-11-27T09:11:39.932Z,8.57
2022-11-27T09:14:17.327Z,8.48
2022-11-27T09:16:46.674Z,7.75
2022-11-27T09:19:13.412Z,8.50
2022-11-27T09:21:40.464Z,8.78
2022-11-27T09:24:07.503Z,8.45
2022-11-27T09:26:34.356Z,8.38
2022-11-27T09:29:01.065Z,8.75
2022-11-27T09:31:28.216Z,8.44
2022-11-27T09:33:55.057Z,8.44
2022-11-27T09:36:24.755Z,9.20
2022-11-27T09:38:52.220Z,9.17
2022-11-27T09:41:55.049Z,9.40
2022-11-27T09:44:39.966Z,9.33
2022-11-27T09:47:12.267Z,9.11
2022-11-27T09:49:45.425Z,9.50
2022-11-27T09:52:21.759Z,9.26
2022-11-27T09:54:57.743Z,9.10
2022-11-27T09:57:39.379Z,9.55
2022-11-27T10:00:28.952Z,9.35
2022-11-27T10:03:03.876Z,9.22
2022-11-27T10:05:54.797Z,9.72
2022-11-27T10:08:34.139Z,9.62
2022-11-27T10:11:12.871Z,9.40
2022-11-27T10:13:57.698Z,9.91
2022-11-27T10:16:45.179Z,9.88
2022-11-27T10:19:41.134Z,9.98
2022-11-27T10:22:19.673Z,9.61
2022-11-27T10:25:21.814Z,9.92
2022-11-27T10:28:22.007Z,9.63
2022-11-27T10:30:58.769Z,9.95
2022-11-27T10:33:43.755Z,9.91
2022-11-27T10:36:39.373Z,10.11
2022-11-27T10:39:44.513Z,9.97
2022-11-27T10:42:36.729Z,9.74
2022-11-27T10:45:08.542Z,10.34
2022-11-27T10:47:40.476Z,9.83
2022-11-27T10:50:14.929Z,10.41
2022-11-27T10:53:07.474Z,10.85
2022-11-27T10:56:01.315Z,11.16
2022-11-27T10:58:36.851Z,11.10
2022-11-27T11:01:09.568Z,11.46
2022-11-27T11:03:36.934Z,11.20
2022-11-27T11:06:26.886Z,11.31
2022-11-27T11:09:14.815Z,11.28
2022-11-27T11:11:47.704Z,11.04
2022-11-27T11:14:29.969Z,11.12
2022-11-27T11:16:56.666Z,11.05
2022-11-27T11:19:35.888Z,11.08
2022-11-27T11:22:14.794Z,11.12
2022-11-27T11:24:47.900Z,11.10
2022-11-27T11:27:24.663Z,11.05
2022-11-27T11:30:07.809Z,11.16
2022-11-27T11:32:42.374Z,11.07
2022-11-27T11:35:24.972Z,10.68
2022-11-27T11:37:53.733Z,11.01
2022-11-27T11:40:20.732Z,11.07
2022-11-27T11:43:05.846Z,11.02
2022-11-27T11:45:35.220Z,11.00
2022-11-27T11:48:19.429Z,10.15
2022-11-27T11:50:55.960Z,10.52
2022-11-27T11:53:33.760Z,10.58
2022-11-27T11:56:18.523Z,10.75
2022-11-27T11:58:59.923Z,10.17
2022-11-27T12:01:38.700Z,9.65
2022-11-27T12:04:31.937Z,10.83
2022-11-27T12:07:15.219Z,10.81
2022-11-27T12:10:06.820Z,10.90
2022-11-27T12:12:50.440Z,10.26
2022-11-27T12:15:44.312Z,11.06
2022-11-27T12:18:17.302Z,10.87
2022-11-27T12:21:19.407Z,11.05
2022-11-27T12:24:15.955Z,10.96
2022-11-27T12:27:07.567Z,10.91
2022-11-27T12:29:51.531Z,10.94
2022-11-27T12:32:28.729Z,10.86
2022-11-27T12:35:21.514Z,10.81
2022-11-27T12:38:20.837Z,10.82
2022-11-27T12:41:07.726Z,10.80
2022-11-27T12:43:39.919Z,10.80
2022-11-27T12:46:50.175Z,10.48
2022-11-27T12:49:26.025Z,10.82
2022-11-27T12:52:20.563Z,10.77
2022-11-27T12:55:21.086Z,10.89
2022-11-27T12:57:56.929Z,10.82
2022-11-27T13:00:30.932Z,10.32
2022-11-27T13:03:08.665Z,10.85
2022-11-27T13:05:47.673Z,10.60
2022-11-27T13:08:35.693Z,10.81
2022-11-27T13:11:15.768Z,10.91
2022-11-27T13:13:48.500Z,10.67
2022-11-27T13:16:30.796Z,10.81
2022-11-27T13:19:15.227Z,10.85
2022-11-27T13:21:45.199Z,10.57
2022-11-27T13:24:13.365Z,10.69
2022-11-27T13:27:04.870Z,10.84
2022-11-27T13:29:44.170Z,11.01
2022-11-27T13:32:26.735Z,10.97
2022-11-27T13:34:57.253Z,10.67
2022-11-27T13:37:32.043Z,10.68
2022-11-27T13:40:20.121Z,10.80
2022-11-27T13:42:55.824Z,10.82
2022-11-27T13:45:35.740Z,10.83
2022-11-27T13:48:19.183Z,10.53
2022-11-27T13:50:54.597Z,10.82
2022-11-27T13:53:33.641Z,10.73
2022-11-27T13:56:00.638Z,10.85
2022-11-27T13:58:35.963Z,10.74
2022-11-27T14:01:23.134Z,10.83
2022-11-27T14:03:51.322Z,10.76
2022-11-27T14:06:28.846Z,10.35
2022-11-27T14:09:01.011Z,10.72
2022-11-27T14:11:44.614Z,10.80
2022-11-27T14:14:24.189Z,10.67
2022-11-27T14:16:59.632Z,10.74
2022-11-27T14:19:43.831Z,10.53
2022-11-27T14:22:48.453Z,10.83
2022-11-27T14:25:31.133Z,10.77
2022-11-27T14:28:09.009Z,10.71
2022-11-27T14:30:41.957Z,10.75
2022-11-27T14:33:26.993Z,10.77
2022-11-27T14:35:56.780Z,10.77
2022-11-27T14:38:27.245Z,10.62
2022-11-27T14:40:55.405Z,10.51
2022-11-27T14:43:28.428Z,10.24
2022-11-27T14:45:58.921Z,10.54
2022-11-27T14:48:46.951Z,10.49
2022-11-27T14:51:20.865Z,10.52
2022-11-27T14:53:52.427Z,10.63
2022-11-27T14:56:19.322Z,10.59
2022-11-27T14:58:54.465Z,10.63
2022-11-27T15:01:33.471Z,10.59
2022-11-27T15:04:21.974Z,10.55
2022-11-27T15:06:51.840Z,10.47
2022-11-27T15:09:32.071Z,10.43
2022-11-27T15:12:19.382Z,10.38
2022-11-27T15:15:02.373Z,10.33
2022-11-27T15:17:37.472Z,10.02
2022-11-27T15:20:18.152Z,10.34
2022-11-27T15:22:50.715Z,10.23
2022-11-27T15:25:41.133Z,10.20
2022-11-27T15:28:41.544Z,10.18
2022-11-27T15:31:29.427Z,10.14
2022-11-27T15:33:58.920Z,10.14
2022-11-27T15:36:26.186Z,10.03
2022-11-27T15:39:03.791Z,9.48
2022-11-27T15:41:31.195Z,9.97
2022-11-27T15:43:57.938Z,9.29
2022-11-27T15:46:39.445Z,9.83
2022-11-27T15:49:13.317Z,9.72
2022-11-27T15:51:40.635Z,9.22
2022-11-27T15:54:07.450Z,9.66
2022-11-27T15:56:34.349Z,9.70
2022-11-27T15:59:02.202Z,9.69
2022-11-27T16:01:29.011Z,9.65
2022-11-27T16:03:56.063Z,9.51
2022-11-27T16:06:25.621Z,9.40
2022-11-27T16:08:58.762Z,9.25
2022-11-27T16:11:26.884Z,8.91
2022-11-27T16:13:53.836Z,8.06
2022-11-27T16:16:23.931Z,9.34
2022-11-27T16:18:51.663Z,9.13
2022-11-27T16:21:18.573Z,9.47
2022-11-27T16:23:45.701Z,9.22
2022-11-27T16:26:14.912Z,9.02
2022-11-27T16:28:44.964Z,9.02
2022-11-27T16:31:13.828Z,9.20
2022-11-27T16:33:41.166Z,8.36
2022-11-27T16:36:16.070Z,8.45
2022-11-27T16:38:43.396Z,9.19
2022-11-27T16:41:13.486Z,9.13
2022-11-27T16:43:42.965Z,8.60
2022-11-27T16:46:26.011Z,8.90
2022-11-27T16:49:01.762Z,8.59
2022-11-27T16:51:35.959Z,8.98
2022-11-27T16:54:07.785Z,7.79
2022-11-27T16:56:36.370Z,9.04
2022-11-27T16:59:06.729Z,8.82
2022-11-27T17:01:40.502Z,8.97
2022-11-27T17:04:11.381Z,9.04
2022-11-27T17:06:40.941Z,9.02
2022-11-27T17:09:16.868Z,9.02
2022-11-27T17:11:53.822Z,8.94
2022-11-27T17:14:20.751Z,8.21
2022-11-27T17:16:48.128Z,8.17
2022-11-27T17:22:16.642Z,8.76
2022-11-27T17:24:48.615Z,8.65
2022-11-27T17:27:15.635Z,8.65
2022-11-27T17:29:42.599Z,8.78
2022-11-27T17:32:10.038Z,8.53
2022-11-27T17:34:39.554Z,8.67
2022-11-27T17:37:06.458Z,8.42
2022-11-27T17:39:36.154Z,8.61
2022-11-27T17:42:03.252Z,8.60
2022-11-27T17:44:30.143Z,8.56
2022-11-27T17:46:56.851Z,8.62
2022-11-27T17:49:23.572Z,8.26
2022-11-27T17:51:51.247Z,7.99
2022-11-27T17:54:18.037Z,8.61
2022-11-27T17:56:44.821Z,8.54
2022-11-27T17:59:18.441Z,8.48
2022-11-27T18:01:45.202Z,8.47
2022-11-27T18:04:18.447Z,8.38
2022-11-27T18:06:45.164Z,8.52
2022-11-27T18:09:12.548Z,8.37
2022-11-27T18:11:39.813Z,7.95
2022-11-27T18:14:09.618Z,8.43
2022-11-27T18:16:38.389Z,7.65
2022-11-27T18:19:10.811Z,8.45
2022-11-27T18:21:40.920Z,8.28
2022-11-27T18:24:25.357Z,7.76
2022-11-27T18:27:11.318Z,7.24
2022-11-27T18:29:40.733Z,7.38
2022-11-27T18:32:08.595Z,8.50
2022-11-27T18:34:35.679Z,6.97
2022-11-27T18:37:08.028Z,8.41
2022-11-27T18:39:38.687Z,8.11
2022-11-27T18:42:08.973Z,8.26
2022-11-27T18:44:44.842Z,8.23
2022-11-27T18:47:13.803Z,7.47
2022-11-27T18:49:41.146Z,8.19
2022-11-27T18:52:11.728Z,7.76
2022-11-27T18:54:38.490Z,8.36
2022-11-27T18:57:07.949Z,7.44
2022-11-27T18:59:34.982Z,7.49
2022-11-27T19:02:05.663Z,7.88
2022-11-27T19:04:43.191Z,8.39
2022-11-27T19:07:14.151Z,8.30
2022-11-27T19:09:42.803Z,8.30
2022-11-27T19:12:09.987Z,8.35
2022-11-27T19:14:36.739Z,8.49
2022-11-27T19:17:03.503Z,7.79
2022-11-27T19:22:21.086Z,8.25
2022-11-27T19:24:55.101Z,8.18
2022-11-27T19:27:26.476Z,7.89
2022-11-27T19:29:53.267Z,8.11
2022-11-27T19:32:22.115Z,8.04
2022-11-27T19:34:51.019Z,7.81
2022-11-27T19:37:33.108Z,7.78
2022-11-27T19:40:12.195Z,7.99
2022-11-27T19:42:38.777Z,8.00
2022-11-27T19:45:06.129Z,8.03
2022-11-27T19:47:32.836Z,8.02
2022-11-27T19:50:02.676Z,7.63
2022-11-27T19:52:29.415Z,7.88
2022-11-27T19:54:56.022Z,8.09
2022-11-27T19:57:22.734Z,7.63
2022-11-27T19:59:49.521Z,8.04
2022-11-27T20:02:19.467Z,8.14
2022-11-27T20:04:46.169Z,8.09
2022-11-27T20:07:15.520Z,7.84
2022-11-27T20:09:42.298Z,7.95
2022-11-27T20:12:09.349Z,7.80
2022-11-27T20:14:36.181Z,7.64
2022-11-27T20:17:03.036Z,7.69
2022-11-27T20:19:29.971Z,7.77
2022-11-27T20:21:59.893Z,7.72
2022-11-27T20:24:27.881Z,7.61
2022-11-27T20:26:54.583Z,7.69
2022-11-27T20:29:21.315Z,7.62
2022-11-27T20:31:48.850Z,7.51
2022-11-27T20:34:20.840Z,7.73
2022-11-27T20:36:48.424Z,7.68
2022-11-27T20:39:20.902Z,7.38
2022-11-27T20:41:51.989Z,7.60
2022-11-27T20:44:19.517Z,7.90
2022-11-27T20:46:49.598Z,7.98
2022-11-27T20:49:16.930Z,7.86
2022-11-27T20:51:44.202Z,7.89
2022-11-27T20:54:11.988Z,8.10
2022-11-27T20:56:38.838Z,8.09
2022-11-27T20:59:10.179Z,7.49
2022-11-27T21:01:41.674Z,7.49
2022-11-27T21:04:18.158Z,7.78
2022-11-27T21:06:47.793Z,7.98
2022-11-27T21:09:21.966Z,7.66
2022-11-27T21:11:49.848Z,7.68
2022-11-27T21:14:20.503Z,7.79
2022-11-27T21:16:50.757Z,6.90
2022-11-27T21:19:20.627Z,7.40
2022-11-27T21:21:50.775Z,7.48
2022-11-27T21:24:19.032Z,7.54
2022-11-27T21:26:50.401Z,7.12
2022-11-27T21:29:19.721Z,7.80
2022-11-27T21:31:47.492Z,7.96
2022-11-27T21:34:14.800Z,7.42
2022-11-27T21:36:44.809Z,6.92
2022-11-27T21:39:20.613Z,7.49
2022-11-27T21:41:51.560Z,7.91
2022-11-27T21:44:19.062Z,8.16
2022-11-27T21:46:47.450Z,8.00
2022-11-27T21:49:20.704Z,8.01
2022-11-27T21:51:51.603Z,7.71
2022-11-27T21:54:19.048Z,7.53
2022-11-27T21:56:50.107Z,7.51
2022-11-27T21:59:16.805Z,7.51
2022-11-27T22:01:45.728Z,7.38
2022-11-27T22:04:15.509Z,7.40
2022-11-27T22:06:43.562Z,7.37
2022-11-27T22:09:18.003Z,6.68
2022-11-27T22:11:49.281Z,6.61
2022-11-27T22:14:20.800Z,5.73
2022-11-27T22:16:48.821Z,6.92
2022-11-27T22:19:18.579Z,7.18
2022-11-27T22:21:46.487Z,7.03
2022-11-27T22:24:19.315Z,6.85
2022-11-27T22:26:51.648Z,7.12
2022-11-27T22:29:21.432Z,7.23
2022-11-27T22:31:48.275Z,7.15
2022-11-27T22:34:18.701Z,6.39
2022-11-27T22:36:51.630Z,7.12
2022-11-27T22:39:19.816Z,7.26
2022-11-27T22:41:47.469Z,7.17
2022-11-27T22:44:21.085Z,6.46
2022-11-27T22:46:51.059Z,7.38
2022-11-27T22:49:22.066Z,7.42
2022-11-27T22:51:49.215Z,6.86
2022-11-27T22:54:17.720Z,7.48
2022-11-27T22:56:47.102Z,6.87
2022-11-27T23:02:05.081Z,7.34
2022-11-27T23:04:32.212Z,7.23
2022-11-27T23:06:59.683Z,6.89
2022-11-27T23:09:26.836Z,7.41
2022-11-27T23:11:53.775Z,6.70
2022-11-27T23:14:20.558Z,6.54
2022-11-27T23:16:47.508Z,6.77
2022-11-27T23:19:14.415Z,6.64
2022-11-27T23:21:41.597Z,7.15
2022-11-27T23:24:12.098Z,6.97
2022-11-27T23:26:42.199Z,7.05
2022-11-27T23:29:09.363Z,7.09
2022-11-27T23:31:36.600Z,6.38
2022-11-27T23:34:13.765Z,6.68
2022-11-27T23:36:43.727Z,6.80
2022-11-27T23:39:13.008Z,7.06
2022-11-27T23:41:40.815Z,6.74
2022-11-27T23:44:12.373Z,7.03
2022-11-27T23:46:39.182Z,6.52
2022-11-27T23:49:06.117Z,6.77
2022-11-27T23:51:38.864Z,6.96
2022-11-27T23:54:10.722Z,6.95
2022-11-27T23:56:38.883Z,6.89
2022-11-27T23:59:05.979Z,6.80
